createdAt,value
2022-11-27T00:01:39.519Z,7.78
2022-11-27T00:04:10.103Z,8.20
2022-11-27T00:06:40.268Z,8.43
2022-11-27T00:09:16.273Z,8.63
2022-11-27T00:11:44.285Z,8.60
2022-11-27T00:14:14.772Z,8.18
2022-11-27T00:16:42.432Z,8.80
2022-11-27T00:19:11.478Z,7.57
2022-11-27T00:21:39.036Z,8.70
2022-11-27T00:24:08.677Z,8.40
2022-11-27T00:26:38.160Z,7.53
2022-11-27T00:29:07.096Z,8.77
2022-11-27T00:31:37.559Z,8.27
2022-11-27T00:34:08.809Z,7.40
2022-11-27T00:36:37.648Z,8.27
2022-11-27T00:39:05.715Z,7.97
2022-11-27T00:41:33.451Z,7.93
2022-11-27T00:44:00.653Z,7.95
2022-11-27T00:46:31.727Z,8.40
2022-11-27T00:49:02.995Z,7.30
2022-11-27T00:51:31.013Z,8.60
2022-11-27T00:53:58.651Z,7.70
2022-11-27T00:56:33.961Z,7.57
2022-11-27T00:59:01.624Z,7.13
2022-11-27T01:01:37.017Z,7.03
2022-11-27T01:04:07.931Z,8.15
2022-11-27T01:06:35.408Z,7.43
2022-11-27T01:09:03.723Z,7.10
2022-11-27T01:11:34.563Z,7.78
2022-11-27T01:14:14.228Z,7.47
2022-11-27T01:16:43.342Z,6.80
2022-11-27T01:19:13.416Z,6.63
2022-11-27T01:21:41.004Z,7.43
2022-11-27T01:24:10.864Z,6.80
2022-11-27T01:26:38.075Z,7.28
2022-11-27T01:29:05.267Z,7.40
2022-11-27T01:31:34.468Z,7.95
2022-11-27T01:34:13.290Z,6.38
2022-11-27T01:36:41.017Z,6.95
2022-11-27T01:39:08.301Z,6.30
2022-11-27T01:41:39.924Z,6.15
2022-11-27T01:44:25.537Z,5.40
2022-11-27T01:47:07.464Z,5.93
2022-11-27T01:49:44.236Z,5.70
2022-11-27T01:52:32.841Z,5.90
2022-11-27T01:55:20.333Z,6.22
2022-11-27T01:57:56.627Z,6.13
2022-11-27T02:00:24.907Z,6.63
2022-11-27T02:02:52.498Z,6.07
2022-11-27T02:05:26.117Z,5.93
2022-11-27T02:07:54.282Z,6.15
2022-11-27T02:10:28.487Z,6.03
2022-11-27T02:13:14.089Z,6.72
2022-11-27T02:16:35.928Z,5.57
2022-11-27T02:19:59.017Z,5.90
2022-11-27T02:22:46.910Z,6.38
2022-11-27T02:26:01.314Z,6.38
2022-11-27T02:29:09.467Z,6.00
2022-11-27T02:31:54.604Z,5.57
2022-11-27T02:34:45.902Z,6.00
2022-11-27T02:37:28.834Z,5.50
2022-11-27T02:40:04.054Z,5.68
2022-11-27T02:43:19.283Z,7.43
2022-11-27T02:45:52.610Z,5.18
2022-11-27T02:48:29.635Z,5.63
2022-11-27T02:50:57.175Z,6.25
2022-11-27T02:53:37.867Z,5.78
2022-11-27T02:56:17.073Z,5.60
2022-11-27T02:58:48.029Z,5.45
2022-11-27T03:01:18.507Z,5.90
2022-11-27T03:03:52.144Z,5.80
2022-11-27T03:06:44.389Z,5.38
2022-11-27T03:09:26.241Z,5.57
2022-11-27T03:11:53.928Z,6.50
2022-11-27T03:14:24.474Z,6.10
2022-11-27T03:17:15.621Z,6.55
2022-11-27T03:20:22.060Z,6.07
2022-11-27T03:22:49.281Z,6.10
2022-11-27T03:25:16.693Z,6.07
2022-11-27T03:28:10.938Z,6.65
2022-11-27T03:30:40.677Z,6.43
2022-11-27T03:33:08.401Z,6.35
2022-11-27T03:35:35.569Z,7.15
2022-11-27T03:38:03.086Z,7.00
2022-11-27T03:41:00.873Z,7.68
2022-11-27T03:43:35.848Z,8.32
2022-11-27T03:46:29.681Z,8.23
2022-11-27T03:49:45.213Z,8.23
2022-11-27T03:52:47.636Z,7.70
2022-11-27T03:56:13.719Z,8.60
2022-11-27T03:58:58.880Z,8.50
2022-11-27T04:01:27.579Z,8.67
2022-11-27T04:03:54.851Z,8.93
2022-11-27T04:06:22.078Z,8.68
2022-11-27T04:08:49.557Z,9.30
2022-11-27T04:11:17.004Z,9.07
2022-11-27T04:13:44.249Z,9.10
2022-11-27T04:16:11.679Z,8.88
2022-11-27T04:18:38.918Z,8.90
2022-11-27T04:21:06.237Z,9.70
2022-11-27T04:23:33.392Z,7.95
2022-11-27T04:26:00.692Z,7.72
2022-11-27T04:28:27.955Z,8.35
2022-11-27T04:30:55.111Z,9.75
2022-11-27T04:33:23.124Z,8.05
2022-11-27T04:35:51.710Z,8.38
2022-11-27T04:38:20.834Z,8.93
2022-11-27T04:40:48.430Z,9.07
2022-11-27T04:43:15.611Z,8.50
2022-11-27T04:45:44.300Z,8.43
2022-11-27T04:48:11.593Z,8.57
2022-11-27T04:50:39.061Z,8.35
2022-11-27T04:53:06.462Z,9.27
2022-11-27T04:55:35.207Z,8.45
2022-11-27T04:58:02.414Z,8.80
2022-11-27T05:00:29.652Z,9.55
2022-11-27T05:02:57.040Z,7.95
2022-11-27T05:05:24.349Z,8.50
2022-11-27T05:07:51.565Z,8.23
2022-11-27T05:10:18.789Z,9.55
2022-11-27T05:12:45.908Z,10.20
2022-11-27T05:15:13.096Z,10.23
2022-11-27T05:17:40.244Z,8.98
2022-11-27T05:20:08.556Z,9.65
2022-11-27T05:22:35.735Z,8.93
2022-11-27T05:25:03.188Z,9.40
2022-11-27T05:27:30.417Z,9.10
2022-11-27T05:29:57.645Z,8.98
2022-11-27T05:32:25.025Z,8.77
2022-11-27T05:34:52.324Z,8.27
2022-11-27T05:37:20.147Z,8.25
2022-11-27T05:39:47.759Z,8.55
2022-11-27T05:42:15.024Z,9.40
2022-11-27T05:44:42.590Z,8.82
2022-11-27T05:47:10.027Z,9.13
2022-11-27T05:49:38.458Z,9.45
2022-11-27T05:52:05.628Z,8.70
2022-11-27T05:54:32.935Z,9.57
2022-11-27T05:57:00.095Z,9.35
2022-11-27T05:59:27.292Z,9.05
2022-11-27T06:01:54.535Z,10.73
2022-11-27T06:04:21.922Z,10.55
2022-11-27T06:06:49.127Z,10.52
2022-11-27T06:09:16.297Z,10.40
2022-11-27T06:11:43.591Z,10.52
2022-11-27T06:14:11.521Z,9.73
2022-11-27T06:16:38.944Z,10.15
2022-11-27T06:19:06.315Z,10.48
2022-11-27T06:21:33.479Z,9.98
2022-11-27T06:24:00.749Z,10.00
2022-11-27T06:26:31.882Z,12.52
2022-11-27T06:29:01.121Z,17.20
2022-11-27T06:31:32.405Z,15.02
2022-11-27T06:34:00.613Z,12.30
2022-11-27T06:36:34.469Z,12.30
2022-11-27T06:39:04.930Z,11.95
2022-11-27T06:41:33.404Z,10.95
2022-11-27T06:44:01.989Z,10.00
2022-11-27T06:46:30.127Z,10.88
2022-11-27T06:48:59.416Z,11.98
2022-11-27T06:51:31.589Z,11.07
2022-11-27T06:54:02.631Z,10.88
2022-11-27T06:56:32.228Z,11.73
2022-11-27T06:59:01.613Z,11.85
2022-11-27T07:01:31.182Z,11.57
2022-11-27T07:03:59.045Z,10.98
2022-11-27T07:06:28.153Z,11.20
2022-11-27T07:08:56.728Z,9.90
2022-11-27T07:11:28.485Z,11.77
2022-11-27T07:14:01.421Z,9.93
2022-11-27T07:16:32.543Z,9.90
2022-11-27T07:19:05.447Z,10.85
2022-11-27T07:21:33.545Z,11.82
2022-11-27T07:24:01.602Z,10.88
2022-11-27T07:26:30.772Z,12.50
2022-11-27T07:28:58.733Z,20.67
2022-11-27T07:31:30.037Z,18.85
2022-11-27T07:33:58.312Z,15.23
2022-11-27T07:36:29.886Z,13.38
2022-11-27T07:38:58.189Z,11.65
2022-11-27T07:41:32.240Z,11.05
2022-11-27T07:44:00.880Z,11.63
2022-11-27T07:46:30.049Z,12.75
2022-11-27T07:48:57.338Z,14.70
2022-11-27T07:51:24.590Z,13.68
2022-11-27T07:53:51.960Z,30.95
2022-11-27T07:56:20.273Z,25.38
2022-11-27T07:58:48.517Z,20.77
2022-11-27T08:01:19.171Z,15.95
2022-11-27T08:03:46.971Z,15.80
2022-11-27T08:06:24.217Z,13.02
2022-11-27T08:08:52.702Z,14.68
2022-11-27T08:11:30.065Z,13.13
2022-11-27T08:14:04.909Z,12.38
2022-11-27T08:16:34.032Z,12.40
2022-11-27T08:19:01.786Z,26.98
2022-11-27T08:21:30.484Z,14.48
2022-11-27T08:23:58.412Z,11.50
2022-11-27T08:26:27.763Z,9.38
2022-11-27T08:28:56.854Z,10.45
2022-11-27T08:31:25.878Z,10.98
2022-11-27T08:33:53.167Z,10.25
2022-11-27T08:36:20.712Z,9.07
2022-11-27T08:38:48.025Z,8.40
2022-11-27T08:41:15.265Z,8.32
2022-11-27T08:43:42.460Z,8.25
2022-11-27T08:46:10.706Z,7.32
2022-11-27T08:48:38.278Z,6.60
2022-11-27T08:51:13.075Z,6.68
2022-11-27T08:53:41.191Z,7.23
2022-11-27T08:56:24.726Z,8.32
2022-11-27T08:58:52.818Z,7.28
2022-11-27T09:01:30.591Z,6.50
2022-11-27T09:03:58.331Z,8.15
2022-11-27T09:06:30.030Z,7.70
2022-11-27T09:08:59.972Z,7.35
2022-11-27T09:11:29.754Z,7.15
2022-11-27T09:13:59.010Z,7.18
2022-11-27T09:16:26.338Z,7.78
2022-11-27T09:18:54.174Z,6.95
2022-11-27T09:21:27.148Z,7.47
2022-11-27T09:24:01.504Z,6.72
2022-11-27T09:26:30.183Z,6.53
2022-11-27T09:28:59.023Z,6.60
2022-11-27T09:31:26.602Z,6.38
2022-11-27T09:33:53.985Z,6.07
2022-11-27T09:36:25.332Z,5.93
2022-11-27T09:38:53.791Z,5.53
2022-11-27T09:41:52.234Z,5.93
2022-11-27T09:44:46.340Z,5.80
2022-11-27T09:47:42.040Z,5.43
2022-11-27T09:50:31.057Z,6.10
2022-11-27T09:53:25.322Z,6.45
2022-11-27T09:55:56.680Z,5.75
2022-11-27T09:58:41.013Z,5.28
2022-11-27T10:01:34.932Z,5.22
2022-11-27T10:04:12.927Z,5.35
2022-11-27T10:07:00.555Z,5.22
2022-11-27T10:09:51.783Z,5.35
2022-11-27T10:13:39.409Z,4.80
2022-11-27T10:16:44.032Z,4.95
2022-11-27T10:19:26.433Z,5.30
2022-11-27T10:22:37.944Z,5.03
2022-11-27T10:25:38.471Z,4.50
2022-11-27T10:28:50.969Z,5.32
2022-11-27T10:31:53.536Z,4.00
2022-11-27T10:34:34.017Z,4.15
2022-11-27T10:37:08.880Z,3.70
2022-11-27T10:39:58.672Z,4.27
2022-11-27T10:42:51.243Z,4.57
2022-11-27T10:45:59.076Z,3.78
2022-11-27T10:48:28.408Z,4.57
2022-11-27T10:50:56.768Z,3.53
2022-11-27T10:53:29.877Z,3.70
2022-11-27T10:56:12.470Z,3.63
2022-11-27T10:59:06.885Z,4.10
2022-11-27T11:01:48.518Z,3.95
2022-11-27T11:04:41.755Z,3.78
2022-11-27T11:07:29.157Z,3.53
2022-11-27T11:09:56.966Z,4.25
2022-11-27T11:12:24.629Z,4.25
2022-11-27T11:15:00.632Z,3.90
2022-11-27T11:17:40.764Z,4.50
2022-11-27T11:20:21.737Z,3.78
2022-11-27T11:22:50.021Z,3.67
2022-11-27T11:25:21.168Z,3.47
2022-11-27T11:27:51.358Z,3.53
2022-11-27T11:30:29.547Z,3.45
2022-11-27T11:33:04.265Z,3.38
2022-11-27T11:35:36.787Z,3.50
2022-11-27T11:38:15.896Z,2.92
2022-11-27T11:40:46.655Z,3.40
2022-11-27T11:43:35.664Z,2.92
2022-11-27T11:46:19.231Z,2.70
2022-11-27T11:49:24.667Z,3.10
2022-11-27T11:52:51.758Z,2.80
2022-11-27T11:56:00.646Z,4.82
2022-11-27T11:58:59.716Z,3.17
2022-11-27T12:01:56.415Z,4.90
2022-11-27T12:04:41.041Z,3.60
2022-11-27T12:07:57.822Z,3.90
2022-11-27T12:11:10.416Z,4.22
2022-11-27T12:14:14.280Z,3.75
2022-11-27T12:17:05.531Z,4.18
2022-11-27T12:20:24.454Z,4.55
2022-11-27T12:23:20.855Z,5.03
2022-11-27T12:26:30.026Z,4.93
2022-11-27T12:29:33.218Z,4.75
2022-11-27T12:32:21.113Z,5.32
2022-11-27T12:34:55.284Z,5.43
2022-11-27T12:38:16.404Z,5.32
2022-11-27T12:41:37.077Z,6.43
2022-11-27T12:44:29.540Z,6.68
2022-11-27T12:47:25.901Z,7.90
2022-11-27T12:50:04.467Z,8.13
2022-11-27T12:52:54.139Z,9.32
2022-11-27T12:55:29.411Z,7.28
2022-11-27T12:58:16.856Z,7.68
2022-11-27T13:00:44.249Z,6.85
2022-11-27T13:04:02.580Z,7.85
2022-11-27T13:06:38.756Z,7.88
2022-11-27T13:09:16.792Z,7.65
2022-11-27T13:11:44.609Z,7.45
2022-11-27T13:14:25.774Z,7.60
2022-11-27T13:17:05.022Z,8.07
2022-11-27T13:19:46.016Z,8.00
2022-11-27T13:22:27.342Z,7.90
2022-11-27T13:24:56.623Z,7.72
2022-11-27T13:27:30.804Z,9.07
2022-11-27T13:30:08.633Z,9.73
2022-11-27T13:32:51.333Z,9.13
2022-11-27T13:35:42.618Z,9.43
2022-11-27T13:38:38.154Z,7.22
2022-11-27T13:41:06.980Z,7.90
2022-11-27T13:43:44.348Z,5.80
2022-11-27T13:46:27.358Z,5.13
2022-11-27T13:49:05.194Z,5.30
2022-11-27T13:51:38.241Z,5.65
2022-11-27T13:54:22.293Z,5.47
2022-11-27T13:56:51.913Z,5.60
2022-11-27T13:59:25.537Z,5.10
2022-11-27T14:02:03.260Z,5.15
2022-11-27T14:04:33.121Z,5.82
2022-11-27T14:07:08.016Z,6.78
2022-11-27T14:09:55.656Z,6.22
2022-11-27T14:12:31.076Z,6.30
2022-11-27T14:15:07.891Z,6.60
2022-11-27T14:17:47.732Z,7.38
2022-11-27T14:20:18.015Z,6.70
2022-11-27T14:23:13.538Z,7.45
2022-11-27T14:25:41.613Z,7.28
2022-11-27T14:28:25.926Z,7.70
2022-11-27T14:31:00.121Z,7.70
2022-11-27T14:33:47.546Z,7.68
2022-11-27T14:36:30.672Z,8.43
2022-11-27T14:38:58.969Z,7.57
2022-11-27T14:41:29.138Z,7.80
2022-11-27T14:44:06.717Z,7.18
2022-11-27T14:46:37.326Z,7.50
2022-11-27T14:49:04.924Z,8.27
2022-11-27T14:51:35.784Z,8.40
2022-11-27T14:54:18.895Z,7.05
2022-11-27T14:56:46.508Z,8.00
2022-11-27T14:59:21.020Z,7.80
2022-11-27T15:02:17.831Z,8.35
2022-11-27T15:04:46.824Z,7.95
2022-11-27T15:07:48.014Z,8.25
2022-11-27T15:10:37.871Z,8.52
2022-11-27T15:13:08.773Z,8.40
2022-11-27T15:15:44.337Z,8.13
2022-11-27T15:18:22.746Z,8.23
2022-11-27T15:20:51.234Z,9.25
2022-11-27T15:23:26.581Z,8.40
2022-11-27T15:26:29.419Z,9.30
2022-11-27T15:28:59.723Z,9.88
2022-11-27T15:31:37.916Z,13.45
2022-11-27T15:34:16.165Z,10.70
2022-11-27T15:36:48.782Z,9.68
2022-11-27T15:39:35.433Z,10.35
2022-11-27T15:42:09.567Z,10.18
2022-11-27T15:44:38.284Z,10.10
2022-11-27T15:47:19.009Z,10.05
2022-11-27T15:49:46.297Z,11.07
2022-11-27T15:52:13.564Z,11.23
2022-11-27T15:54:40.994Z,11.48
2022-11-27T15:57:08.422Z,11.07
2022-11-27T15:59:35.657Z,11.18
2022-11-27T16:02:03.423Z,11.52
2022-11-27T16:04:31.476Z,10.85
2022-11-27T16:06:58.826Z,11.95
2022-11-27T16:09:26.056Z,12.10
2022-11-27T16:11:53.503Z,11.80
2022-11-27T16:14:20.699Z,12.02
2022-11-27T16:16:48.055Z,12.90
2022-11-27T16:19:16.947Z,13.63
2022-11-27T16:21:44.520Z,12.88
2022-11-27T16:24:14.708Z,14.20
2022-11-27T16:26:42.762Z,12.82
2022-11-27T16:29:10.605Z,13.00
2022-11-27T16:31:37.973Z,12.68
2022-11-27T16:34:06.504Z,14.02
2022-11-27T16:36:34.247Z,12.73
2022-11-27T16:39:02.660Z,15.27
2022-11-27T16:41:30.847Z,14.10
2022-11-27T16:43:58.327Z,15.02
2022-11-27T16:46:30.908Z,15.20
2022-11-27T16:49:00.696Z,15.52
2022-11-27T16:51:33.880Z,16.52
2022-11-27T16:54:05.780Z,16.65
2022-11-27T16:56:35.180Z,17.20
2022-11-27T16:59:14.507Z,17.58
2022-11-27T17:01:42.629Z,18.67
2022-11-27T17:04:20.139Z,18.17
2022-11-27T17:06:49.811Z,22.13
2022-11-27T17:09:17.752Z,23.67
2022-11-27T17:11:50.750Z,19.58
2022-11-27T17:14:20.369Z,19.48
2022-11-27T17:16:49.094Z,19.75
2022-11-27T17:19:17.712Z,18.08
2022-11-27T17:21:45.904Z,19.40
2022-11-27T17:24:16.310Z,20.00
2022-11-27T17:26:48.282Z,19.65
2022-11-27T17:29:19.319Z,18.63
2022-11-27T17:31:46.846Z,18.05
2022-11-27T17:34:16.379Z,19.92
2022-11-27T17:36:46.309Z,18.33
2022-11-27T17:39:15.487Z,18.98
2022-11-27T17:41:45.066Z,17.38
2022-11-27T17:44:13.475Z,28.20
2022-11-27T17:46:41.294Z,31.13
2022-11-27T17:49:08.705Z,30.02
2022-11-27T17:51:36.904Z,22.88
2022-11-27T17:54:05.911Z,22.42
2022-11-27T17:56:34.805Z,24.45
2022-11-27T17:59:02.690Z,23.45
2022-11-27T18:01:30.873Z,23.33
2022-11-27T18:04:01.204Z,22.00
2022-11-27T18:06:31.850Z,26.75
2022-11-27T18:09:00.302Z,23.48
2022-11-27T18:11:33.725Z,21.40
2022-11-27T18:14:01.479Z,22.13
2022-11-27T18:16:37.667Z,24.23
2022-11-27T18:19:11.056Z,22.02
2022-11-27T18:21:39.574Z,21.80
2022-11-27T18:24:24.619Z,21.52
2022-11-27T18:27:11.305Z,24.75
2022-11-27T18:32:12.441Z,28.52
2022-11-27T18:34:40.975Z,27.65
2022-11-27T18:37:08.859Z,25.88
2022-11-27T18:39:37.173Z,25.13
2022-11-27T18:42:06.117Z,23.85
2022-11-27T18:44:37.304Z,23.88
2022-11-27T18:47:11.124Z,24.52
2022-11-27T18:49:41.397Z,25.08
2022-11-27T18:52:09.448Z,23.75
2022-11-27T18:54:37.337Z,23.40
2022-11-27T18:57:06.984Z,21.50
2022-11-27T18:59:34.897Z,21.63
2022-11-27T19:02:03.927Z,21.30
2022-11-27T19:04:31.300Z,21.13
2022-11-27T19:06:58.604Z,22.52
2022-11-27T19:09:26.366Z,22.23
2022-11-27T19:11:54.143Z,20.05
2022-11-27T19:14:21.423Z,23.13
2022-11-27T19:16:48.936Z,22.83
2022-11-27T19:22:09.339Z,24.38
2022-11-27T19:24:38.118Z,23.02
2022-11-27T19:27:05.517Z,22.83
2022-11-27T19:29:32.823Z,24.20
2022-11-27T19:32:01.026Z,22.83
2022-11-27T19:34:28.703Z,22.35
2022-11-27T19:36:58.122Z,22.02
2022-11-27T19:39:27.063Z,22.20
2022-11-27T19:41:54.783Z,22.75
2022-11-27T19:44:22.160Z,22.35
2022-11-27T19:46:49.344Z,23.00
2022-11-27T19:49:18.630Z,22.48
2022-11-27T19:51:46.537Z,23.90
2022-11-27T19:54:16.597Z,27.50
2022-11-27T19:56:44.087Z,26.95
2022-11-27T19:59:13.154Z,28.60
2022-11-27T20:01:42.563Z,27.50
2022-11-27T20:04:12.660Z,26.27
2022-11-27T20:06:40.972Z,25.73
2022-11-27T20:09:08.876Z,28.63
2022-11-27T20:11:36.544Z,25.95
2022-11-27T20:14:07.289Z,25.70
2022-11-27T20:16:36.555Z,26.35
2022-11-27T20:19:05.955Z,26.30
2022-11-27T20:21:36.700Z,25.88
2022-11-27T20:24:04.900Z,26.58
2022-11-27T20:26:37.138Z,26.98
2022-11-27T20:29:07.545Z,25.30
2022-11-27T20:31:37.806Z,24.92
2022-11-27T20:34:08.513Z,25.75
2022-11-27T20:36:39.201Z,25.83
2022-11-27T20:39:06.722Z,26.58
2022-11-27T20:41:33.895Z,25.40
2022-11-27T20:44:04.647Z,25.77
2022-11-27T20:46:33.489Z,25.13
2022-11-27T20:49:04.236Z,23.35
2022-11-27T20:51:35.764Z,23.55
2022-11-27T20:54:09.247Z,21.92
2022-11-27T20:56:38.151Z,24.55
2022-11-27T20:59:07.765Z,23.48
2022-11-27T21:01:36.969Z,23.70
2022-11-27T21:04:09.535Z,25.20
2022-11-27T21:06:43.823Z,25.85
2022-11-27T21:09:13.701Z,31.90
2022-11-27T21:11:42.812Z,32.28
2022-11-27T21:14:14.023Z,27.92
2022-11-27T21:16:48.297Z,27.92
2022-11-27T21:19:25.275Z,27.77
2022-11-27T21:21:56.026Z,25.73
2022-11-27T21:24:27.817Z,27.02
2022-11-27T21:26:56.403Z,26.48
2022-11-27T21:29:25.779Z,25.77
2022-11-27T21:31:55.293Z,26.65
2022-11-27T21:34:24.685Z,25.00
2022-11-27T21:36:51.906Z,25.55
2022-11-27T21:39:22.473Z,27.65
2022-11-27T21:41:53.829Z,25.30
2022-11-27T21:44:22.635Z,25.25
2022-11-27T21:46:51.348Z,26.58
2022-11-27T21:49:21.153Z,25.77
2022-11-27T21:51:53.483Z,27.40
2022-11-27T21:54:24.592Z,27.05
2022-11-27T21:56:52.607Z,27.08
2022-11-27T21:59:20.478Z,25.35
2022-11-27T22:01:48.159Z,26.90
2022-11-27T22:04:15.989Z,26.15
2022-11-27T22:06:45.139Z,25.40
2022-11-27T22:09:15.701Z,26.90
2022-11-27T22:11:45.667Z,27.67
2022-11-27T22:14:15.927Z,29.08
2022-11-27T22:16:46.672Z,27.38
2022-11-27T22:19:17.001Z,26.85
2022-11-27T22:21:45.357Z,26.35
2022-11-27T22:24:18.755Z,27.10
2022-11-27T22:26:49.001Z,27.85
2022-11-27T22:29:16.701Z,26.50
2022-11-27T22:31:44.016Z,25.20
2022-11-27T22:34:11.413Z,25.63
2022-11-27T22:36:39.232Z,29.98
2022-11-27T22:39:08.884Z,31.90
2022-11-27T22:41:39.605Z,29.08
2022-11-27T22:44:18.506Z,29.15
2022-11-27T22:46:47.543Z,30.17
2022-11-27T22:49:18.719Z,30.33
2022-11-27T22:51:46.973Z,28.55
2022-11-27T22:54:17.074Z,27.75
2022-11-27T22:56:46.315Z,26.67
2022-11-27T23:02:06.434Z,25.58
2022-11-27T23:04:36.174Z,25.70
2022-11-27T23:07:05.830Z,26.38
2022-11-27T23:09:33.780Z,25.98
2022-11-27T23:12:01.041Z,25.45
2022-11-27T23:14:28.404Z,25.27
2022-11-27T23:16:55.756Z,26.15
2022-11-27T23:19:23.097Z,23.73
2022-11-27T23:21:50.357Z,25.35
2022-11-27T23:24:17.608Z,25.17
2022-11-27T23:26:46.064Z,25.50
2022-11-27T23:29:14.384Z,24.30
2022-11-27T23:31:41.975Z,24.55
2022-11-27T23:34:15.334Z,24.13
2022-11-27T23:36:43.284Z,23.58
2022-11-27T23:39:13.820Z,23.58
2022-11-27T23:41:41.650Z,24.58
2022-11-27T23:44:09.601Z,23.58
2022-11-27T23:46:36.821Z,23.73
2022-11-27T23:49:04.032Z,23.38
2022-11-27T23:51:32.801Z,22.63
2022-11-27T23:54:00.893Z,20.70
2022-11-27T23:56:31.709Z,22.63
2022-11-27T23:59:00.511Z,22.40
